sensor_id;sensor_type;location;lat;lon;timestamp;pressure;altitude;pressure_sealevel;temperature;humidity
48624;BME280;34422;45.802;16.114;2023-07-02T00:02:05;65808.81;;;18.92;100.00
48624;BME280;34422;45.802;16.114;2023-07-02T00:04:33;65797.97;;;18.82;100.00
48624;BME280;34422;45.802;16.114;2023-07-02T00:06:59;65794.19;;;18.84;100.00
48624;BME280;34422;45.802;16.114;2023-07-02T00:09:26;65787.66;;;18.72;100.00
48624;BME280;34422;45.802;16.114;2023-07-02T00:11:53;65782.22;;;18.72;100.00
48624;BME280;34422;45.802;16.114;2023-07-02T00:14:20;65786.56;;;18.76;100.00
48624;BME280;34422;45.802;16.114;2023-07-02T00:16:48;65775.75;;;18.66;100.00
48624;BME280;34422;45.802;16.114;2023-07-02T00:19:15;65775.19;;;18.66;100.00
48624;BME280;34422;45.802;16.114;2023-07-02T00:21:42;65775.75;;;18.66;100.00
48624;BME280;34422;45.802;16.114;2023-07-02T00:24:09;65764.38;;;18.58;100.00
48624;BME280;34422;45.802;16.114;2023-07-02T00:26:37;65767.59;;;18.56;100.00
48624;BME280;34422;45.802;16.114;2023-07-02T00:29:08;65774.66;;;18.65;100.00
48624;BME280;34422;45.802;16.114;2023-07-02T00:31:36;65775.22;;;18.61;100.00
48624;BME280;34422;45.802;16.114;2023-07-02T00:34:03;65778.47;;;18.64;100.00
48624;BME280;34422;45.802;16.114;2023-07-02T00:36:31;65770.31;;;18.61;100.00
48624;BME280;34422;45.802;16.114;2023-07-02T00:38:58;65771.41;;;18.62;100.00
48624;BME280;34422;45.802;16.114;2023-07-02T00:41:25;65774.13;;;18.62;100.00
48624;BME280;34422;45.802;16.114;2023-07-02T00:43:52;65782.28;;;18.62;100.00
48624;BME280;34422;45.802;16.114;2023-07-02T00:46:22;65779.00;;;18.64;100.00
48624;BME280;34422;45.802;16.114;2023-07-02T00:48:54;65781.16;;;18.71;100.00
48624;BME280;34422;45.802;16.114;2023-07-02T00:51:23;65799.59;;;18.84;100.00
48624;BME280;34422;45.802;16.114;2023-07-02T00:53:53;65802.84;;;18.92;100.00
48624;BME280;34422;45.802;16.114;2023-07-02T00:56:21;65789.28;;;18.76;100.00
48624;BME280;34422;45.802;16.114;2023-07-02T00:58:50;65772.50;;;18.58;100.00
48624;BME280;34422;45.802;16.114;2023-07-02T01:01:19;65749.72;;;18.37;100.00
48624;BME280;34422;45.802;16.114;2023-07-02T01:04:04;65755.66;;;18.45;100.00
48624;BME280;34422;45.802;16.114;2023-07-02T01:06:33;65755.16;;;18.42;100.00
48624;BME280;34422;45.802;16.114;2023-07-02T01:09:03;65747.00;;;18.37;100.00
48624;BME280;34422;45.802;16.114;2023-07-02T01:11:34;65744.84;;;18.35;100.00
48624;BME280;34422;45.802;16.114;2023-07-02T01:16:52;65743.75;;;18.31;100.00
48624;BME280;34422;45.802;16.114;2023-07-02T01:19:22;65739.97;;;18.25;100.00
48624;BME280;34422;45.802;16.114;2023-07-02T01:21:52;65736.72;;;18.25;100.00
48624;BME280;34422;45.802;16.114;2023-07-02T01:24:19;65741.59;;;18.29;100.00
48624;BME280;34422;45.802;16.114;2023-07-02T01:26:47;65735.63;;;18.29;100.00
48624;BME280;34422;45.802;16.114;2023-07-02T01:29:18;65743.75;;;18.34;100.00
48624;BME280;34422;45.802;16.114;2023-07-02T01:31:46;65744.28;;;18.37;100.00
48624;BME280;34422;45.802;16.114;2023-07-02T01:34:13;65743.19;;;18.38;100.00
48624;BME280;34422;45.802;16.114;2023-07-02T01:36:40;65739.44;;;18.30;100.00
48624;BME280;34422;45.802;16.114;2023-07-02T01:39:08;65738.88;;;18.27;100.00
48624;BME280;34422;45.802;16.114;2023-07-02T01:41:43;65732.38;;;18.26;100.00
48624;BME280;34422;45.802;16.114;2023-07-02T01:44:11;65735.09;;;18.28;100.00
48624;BME280;34422;45.802;16.114;2023-07-02T01:46:38;65731.28;;;18.25;100.00
48624;BME280;34422;45.802;16.114;2023-07-02T01:49:05;65723.19;;;18.12;100.00
48624;BME280;34422;45.802;16.114;2023-07-02T01:51:32;65719.91;;;18.09;100.00
48624;BME280;34422;45.802;16.114;2023-07-02T01:53:59;65724.25;;;18.10;100.00
48624;BME280;34422;45.802;16.114;2023-07-02T01:56:27;65727.53;;;18.14;100.00
48624;BME280;34422;45.802;16.114;2023-07-02T01:58:54;65730.22;;;18.14;100.00
48624;BME280;34422;45.802;16.114;2023-07-02T02:01:21;65731.84;;;18.23;100.00
48624;BME280;34422;45.802;16.114;2023-07-02T02:03:48;65746.47;;;18.34;100.00
48624;BME280;34422;45.802;16.114;2023-07-02T02:06:15;65744.28;;;18.34;100.00
48624;BME280;34422;45.802;16.114;2023-07-02T02:08:41;65743.75;;;18.34;100.00
48624;BME280;34422;45.802;16.114;2023-07-02T02:11:08;65747.00;;;18.37;100.00
48624;BME280;34422;45.802;16.114;2023-07-02T02:13:35;65750.25;;;18.40;100.00
48624;BME280;34422;45.802;16.114;2023-07-02T02:16:02;65749.72;;;18.42;100.00
48624;BME280;34422;45.802;16.114;2023-07-02T02:18:28;65746.47;;;18.39;100.00
48624;BME280;34422;45.802;16.114;2023-07-02T02:20:55;65759.47;;;18.46;100.00
48624;BME280;34422;45.802;16.114;2023-07-02T02:23:22;65759.47;;;18.48;100.00
48624;BME280;34422;45.802;16.114;2023-07-02T02:25:49;65752.94;;;18.45;100.00
48624;BME280;34422;45.802;16.114;2023-07-02T02:28:15;65765.97;;;18.52;100.00
48624;BME280;34422;45.802;16.114;2023-07-02T02:30:42;65753.50;;;18.45;100.00
48624;BME280;34422;45.802;16.114;2023-07-02T02:33:09;65748.63;;;18.41;100.00
48624;BME280;34422;45.802;16.114;2023-07-02T02:35:36;65746.47;;;18.39;100.00
48624;BME280;34422;45.802;16.114;2023-07-02T02:38:03;65737.78;;;18.31;100.00
48624;BME280;34422;45.802;16.114;2023-07-02T02:40:33;65730.75;;;18.27;100.00
48624;BME280;34422;45.802;16.114;2023-07-02T02:43:00;65739.44;;;18.30;100.00
48624;BME280;34422;45.802;16.114;2023-07-02T02:45:27;65725.88;;;18.20;100.00
48624;BME280;34422;45.802;16.114;2023-07-02T02:47:55;65720.47;;;18.12;100.00
48624;BME280;34422;45.802;16.114;2023-07-02T02:50:22;65722.63;;;18.11;100.00
48624;BME280;34422;45.802;16.114;2023-07-02T02:52:49;65730.22;;;18.21;100.00
48624;BME280;34422;45.802;16.114;2023-07-02T02:55:16;65728.03;;;18.22;100.00
48624;BME280;34422;45.802;16.114;2023-07-02T02:57:43;65735.63;;;18.24;100.00
48624;BME280;34422;45.802;16.114;2023-07-02T03:00:10;65742.16;;;18.30;100.00
48624;BME280;34422;45.802;16.114;2023-07-02T03:02:38;65729.13;;;18.25;100.00
48624;BME280;34422;45.802;16.114;2023-07-02T03:05:06;65727.50;;;18.19;100.00
48624;BME280;34422;45.802;16.114;2023-07-02T03:07:33;65719.38;;;18.14;100.00
48624;BME280;34422;45.802;16.114;2023-07-02T03:09:59;65731.28;;;18.20;100.00
48624;BME280;34422;45.802;16.114;2023-07-02T03:12:26;65723.19;;;18.15;100.00
48624;BME280;34422;45.802;16.114;2023-07-02T03:14:53;65723.19;;;18.12;100.00
48624;BME280;34422;45.802;16.114;2023-07-02T03:17:21;65721.53;;;18.13;100.00
48624;BME280;34422;45.802;16.114;2023-07-02T03:19:48;65723.72;;;18.18;100.00
48624;BME280;34422;45.802;16.114;2023-07-02T03:22:16;65737.81;;;18.28;100.00
48624;BME280;34422;45.802;16.114;2023-07-02T03:24:43;65734.00;;;18.25;100.00
48624;BME280;34422;45.802;16.114;2023-07-02T03:27:10;65737.78;;;18.31;100.00
48624;BME280;34422;45.802;16.114;2023-07-02T03:29:36;65734.50;;;18.33;100.00
48624;BME280;34422;45.802;16.114;2023-07-02T03:32:05;65756.22;;;18.43;100.00
48624;BME280;34422;45.802;16.114;2023-07-02T03:34:32;65764.34;;;18.51;100.00
48624;BME280;34422;45.802;16.114;2023-07-02T03:36:59;65757.28;;;18.46;100.00
48624;BME280;34422;45.802;16.114;2023-07-02T03:39:26;65768.16;;;18.59;100.00
48624;BME280;34422;45.802;16.114;2023-07-02T03:41:52;65780.09;;;18.65;100.00
48624;BME280;34422;45.802;16.114;2023-07-02T03:44:19;65776.28;;;18.69;100.00
48624;BME280;34422;45.802;16.114;2023-07-02T03:46:46;65774.66;;;18.65;100.00
48624;BME280;34422;45.802;16.114;2023-07-02T03:49:13;65783.31;;;18.73;100.00
48624;BME280;34422;45.802;16.114;2023-07-02T03:51:40;65784.41;;;18.74;100.00
48624;BME280;34422;45.802;16.114;2023-07-02T03:54:07;65798.53;;;18.83;100.00
48624;BME280;34422;45.802;16.114;2023-07-02T03:56:33;65799.59;;;18.89;100.00
48624;BME280;34422;45.802;16.114;2023-07-02T03:59:00;65797.44;;;18.81;100.00
48624;BME280;34422;45.802;16.114;2023-07-02T04:01:27;65784.44;;;18.69;100.00
48624;BME280;34422;45.802;16.114;2023-07-02T04:03:55;65794.19;;;18.78;100.00
48624;BME280;34422;45.802;16.114;2023-07-02T04:06:22;65788.75;;;18.73;100.00
48624;BME280;34422;45.802;16.114;2023-07-02T04:08:49;65781.72;;;18.69;100.00
48624;BME280;34422;45.802;16.114;2023-07-02T04:11:16;65783.88;;;18.71;100.00
48624;BME280;34422;45.802;16.114;2023-07-02T04:13:43;65796.88;;;18.86;100.00
48624;BME280;34422;45.802;16.114;2023-07-02T04:16:10;65811.50;;;19.00;100.00
48624;BME280;34422;45.802;16.114;2023-07-02T04:18:36;65812.59;;;19.01;100.00
48624;BME280;34422;45.802;16.114;2023-07-02T04:21:03;65824.53;;;19.12;100.00
48624;BME280;34422;45.802;16.114;2023-07-02T04:23:30;65835.38;;;19.22;100.00
48624;BME280;34422;45.802;16.114;2023-07-02T04:25:57;65850.03;;;19.31;100.00
48624;BME280;34422;45.802;16.114;2023-07-02T04:28:24;65853.78;;;19.42;100.00
48624;BME280;34422;45.802;16.114;2023-07-02T04:30:51;65838.63;;;19.25;100.00
48624;BME280;34422;45.802;16.114;2023-07-02T04:33:19;65843.50;;;19.27;100.00
48624;BME280;34422;45.802;16.114;2023-07-02T04:35:46;65839.72;;;19.26;100.00
48624;BME280;34422;45.802;16.114;2023-07-02T04:38:13;65856.00;;;19.36;100.00
48624;BME280;34422;45.802;16.114;2023-07-02T04:40:40;65863.03;;;19.48;100.00
48624;BME280;34422;45.802;16.114;2023-07-02T04:43:11;65867.91;;;19.47;100.00
48624;BME280;34422;45.802;16.114;2023-07-02T04:45:38;65859.22;;;19.44;100.00
48624;BME280;34422;45.802;16.114;2023-07-02T04:48:06;65846.75;;;19.30;100.00
48624;BME280;34422;45.802;16.114;2023-07-02T04:50:33;65850.53;;;19.41;100.00
48624;BME280;34422;45.802;16.114;2023-07-02T04:53:00;65870.09;;;19.55;100.00
48624;BME280;34422;45.802;16.114;2023-07-02T04:55:27;65865.75;;;19.53;100.00
48624;BME280;34422;45.802;16.114;2023-07-02T04:57:53;65885.84;;;19.62;100.00
48624;BME280;34422;45.802;16.114;2023-07-02T05:00:20;65863.03;;;19.48;100.00
48624;BME280;34422;45.802;16.114;2023-07-02T05:02:48;65867.38;;;19.52;100.00
48624;BME280;34422;45.802;16.114;2023-07-02T05:05:16;65873.34;;;19.58;100.00
48624;BME280;34422;45.802;16.114;2023-07-02T05:07:43;65902.13;;;19.79;100.00
48624;BME280;34422;45.802;16.114;2023-07-02T05:10:10;65928.66;;;20.09;100.00
48624;BME280;34422;45.802;16.114;2023-07-02T05:12:37;65992.19;;;20.69;100.00
48624;BME280;34422;45.802;16.114;2023-07-02T05:15:04;66044.28;;;21.22;100.00
48624;BME280;34422;45.802;16.114;2023-07-02T05:17:31;66099.19;;;21.69;100.00
48624;BME280;34422;45.802;16.114;2023-07-02T05:20:02;66112.78;;;21.79;100.00
48624;BME280;34422;45.802;16.114;2023-07-02T05:22:30;66171.47;;;22.36;100.00
48624;BME280;34422;45.802;16.114;2023-07-02T05:24:57;66259.00;;;23.18;100.00
48624;BME280;34422;45.802;16.114;2023-07-02T05:27:24;66161.69;;;22.24;100.00
48624;BME280;34422;45.802;16.114;2023-07-02T05:29:51;66125.25;;;21.93;100.00
48624;BME280;34422;45.802;16.114;2023-07-02T05:32:18;66122.56;;;21.85;100.00
48624;BME280;34422;45.802;16.114;2023-07-02T05:34:45;66151.34;;;22.17;100.00
48624;BME280;34422;45.802;16.114;2023-07-02T05:37:11;66081.78;;;21.52;100.00
48624;BME280;34422;45.802;16.114;2023-07-02T05:39:38;66157.88;;;22.23;100.00
48624;BME280;34422;45.802;16.114;2023-07-02T05:42:05;66091.59;;;21.59;100.00
48624;BME280;34422;45.802;16.114;2023-07-02T05:44:32;66192.63;;;22.58;100.00
48624;BME280;34422;45.802;16.114;2023-07-02T05:46:59;66126.34;;;21.94;100.00
48624;BME280;34422;45.802;16.114;2023-07-02T05:49:25;66181.22;;;22.48;100.00
48624;BME280;34422;45.802;16.114;2023-07-02T05:51:52;66347.16;;;24.00;100.00
48624;BME280;34422;45.802;16.114;2023-07-02T05:54:19;66311.78;;;23.67;100.00
48624;BME280;34422;45.802;16.114;2023-07-02T05:56:46;66228.59;;;22.84;100.00
48624;BME280;34422;45.802;16.114;2023-07-02T05:59:13;66258.47;;;23.15;100.00
48624;BME280;34422;45.802;16.114;2023-07-02T06:01:44;66191.59;;;22.55;100.00
48624;BME280;34422;45.802;16.114;2023-07-02T06:04:11;66159.50;;;22.27;100.00
48624;BME280;34422;45.802;16.114;2023-07-02T06:06:38;66164.38;;;22.32;100.00
48624;BME280;34422;45.802;16.114;2023-07-02T06:09:04;66187.22;;;22.51;100.00
48624;BME280;34422;45.802;16.114;2023-07-02T06:11:31;66185.59;;;22.47;100.00
48624;BME280;34422;45.802;16.114;2023-07-02T06:13:58;66213.31;;;22.75;100.00
48624;BME280;34422;45.802;16.114;2023-07-02T06:16:25;66204.66;;;22.62;100.00
48624;BME280;34422;45.802;16.114;2023-07-02T06:18:52;66230.19;;;22.91;100.00
48624;BME280;34422;45.802;16.114;2023-07-02T06:21:19;66225.28;;;22.89;100.00
48624;BME280;34422;45.802;16.114;2023-07-02T06:23:46;66284.03;;;23.41;100.00
48624;BME280;34422;45.802;16.114;2023-07-02T06:26:13;66352.59;;;24.05;100.00
48624;BME280;34422;45.802;16.114;2023-07-02T06:28:40;66389.09;;;24.36;100.00
48624;BME280;34422;45.802;16.114;2023-07-02T06:31:06;66407.59;;;24.56;100.00
48624;BME280;34422;45.802;16.114;2023-07-02T06:33:33;66315.59;;;23.70;100.00
48624;BME280;34422;45.802;16.114;2023-07-02T06:36:00;66399.41;;;24.49;100.00
48624;BME280;34422;45.802;16.114;2023-07-02T06:38:27;66424.47;;;24.72;100.00
48624;BME280;34422;45.802;16.114;2023-07-02T06:40:54;66292.19;;;23.49;100.00
48624;BME280;34422;45.802;16.114;2023-07-02T06:43:21;66361.31;;;24.13;100.00
48624;BME280;34422;45.802;16.114;2023-07-02T06:45:48;66407.03;;;24.56;100.00
48624;BME280;34422;45.802;16.114;2023-07-02T06:48:15;66465.31;;;25.12;100.00
48624;BME280;34422;45.802;16.114;2023-07-02T06:50:44;66381.44;;;24.34;100.00
48624;BME280;34422;45.802;16.114;2023-07-02T06:53:12;66404.84;;;24.59;100.00
48624;BME280;34422;45.802;16.114;2023-07-02T06:55:39;66444.06;;;24.90;100.00
48624;BME280;34422;45.802;16.114;2023-07-02T06:58:06;66424.41;;;24.77;100.00
48624;BME280;34422;45.802;16.114;2023-07-02T07:00:33;66423.94;;;24.71;100.00
48624;BME280;34422;45.802;16.114;2023-07-02T07:03:03;66528.47;;;25.74;100.00
48624;BME280;34422;45.802;16.114;2023-07-02T07:05:31;66569.41;;;26.07;100.00
48624;BME280;34422;45.802;16.114;2023-07-02T07:07:59;66649.00;;;26.81;100.00
48624;BME280;34422;45.802;16.114;2023-07-02T07:10:27;66716.03;;;27.48;100.00
48624;BME280;34422;45.802;16.114;2023-07-02T07:12:54;66744.97;;;27.75;100.00
48624;BME280;34422;45.802;16.114;2023-07-02T07:15:21;66794.13;;;28.16;100.00
48624;BME280;34422;45.802;16.114;2023-07-02T07:17:48;66730.78;;;27.62;100.00
48624;BME280;34422;45.802;16.114;2023-07-02T07:20:15;66601.03;;;26.36;100.00
48624;BME280;34422;45.802;16.114;2023-07-02T07:22:42;66645.75;;;26.78;100.00
48624;BME280;34422;45.802;16.114;2023-07-02T07:25:09;66737.38;;;27.66;100.00
48624;BME280;34422;45.802;16.114;2023-07-02T07:27:36;66950.84;;;29.66;83.79
48624;BME280;34422;45.802;16.114;2023-07-02T07:30:03;66861.31;;;28.78;94.39
48624;BME280;34422;45.802;16.114;2023-07-02T07:32:31;66814.84;;;28.40;91.24
48624;BME280;34422;45.802;16.114;2023-07-02T07:34:57;66775.53;;;28.04;95.31
48624;BME280;34422;45.802;16.114;2023-07-02T07:37:24;66826.91;;;28.46;90.16
48624;BME280;34422;45.802;16.114;2023-07-02T07:39:54;66837.78;;;28.61;85.14
48624;BME280;34422;45.802;16.114;2023-07-02T07:42:20;66890.22;;;29.10;81.85
48624;BME280;34422;45.802;16.114;2023-07-02T07:44:47;66907.19;;;29.23;82.66
48624;BME280;34422;45.802;16.114;2023-07-02T07:47:14;66959.06;;;29.74;78.45
48624;BME280;34422;45.802;16.114;2023-07-02T07:49:41;67027.84;;;30.43;70.84
48624;BME280;34422;45.802;16.114;2023-07-02T07:52:08;66976.53;;;29.90;70.82
48624;BME280;34422;45.802;16.114;2023-07-02T07:54:35;66804.50;;;28.28;78.56
48624;BME280;34422;45.802;16.114;2023-07-02T07:57:03;66783.19;;;28.11;79.01
48624;BME280;34422;45.802;16.114;2023-07-02T07:59:31;66872.75;;;28.94;76.93
48624;BME280;34422;45.802;16.114;2023-07-02T08:01:57;67013.72;;;30.25;73.23
48624;BME280;34422;45.802;16.114;2023-07-02T08:04:24;67112.16;;;31.16;71.29
48624;BME280;34422;45.802;16.114;2023-07-02T08:06:51;67134.59;;;31.34;68.28
48624;BME280;34422;45.802;16.114;2023-07-02T08:09:18;67251.22;;;32.40;61.29
48624;BME280;34422;45.802;16.114;2023-07-02T08:11:45;66979.31;;;29.90;73.14
48624;BME280;34422;45.802;16.114;2023-07-02T08:14:13;66918.63;;;29.37;71.44
48624;BME280;34422;45.802;16.114;2023-07-02T08:16:39;66927.97;;;29.40;73.04
48624;BME280;34422;45.802;16.114;2023-07-02T08:19:07;67151.50;;;31.55;56.89
48624;BME280;34422;45.802;16.114;2023-07-02T08:21:33;67115.50;;;31.14;55.76
48624;BME280;34422;45.802;16.114;2023-07-02T08:24:00;67108.88;;;31.13;64.07
48624;BME280;34422;45.802;16.114;2023-07-02T08:26:27;67112.19;;;31.14;55.91
48624;BME280;34422;45.802;16.114;2023-07-02T08:28:55;67158.09;;;31.59;61.58
48624;BME280;34422;45.802;16.114;2023-07-02T08:31:21;67308.69;;;32.96;54.20
48624;BME280;34422;45.802;16.114;2023-07-02T08:33:48;67344.84;;;33.29;50.90
48624;BME280;34422;45.802;16.114;2023-07-02T08:36:15;67449.38;;;34.34;42.81
48624;BME280;34422;45.802;16.114;2023-07-02T08:38:42;67486.72;;;34.63;41.10
48624;BME280;34422;45.802;16.114;2023-07-02T08:41:09;67344.78;;;33.34;45.99
48624;BME280;34422;45.802;16.114;2023-07-02T08:43:37;67107.25;;;31.09;52.85
48624;BME280;34422;45.802;16.114;2023-07-02T08:46:04;67411.69;;;33.91;42.72
48624;BME280;34422;45.802;16.114;2023-07-02T08:48:31;67418.78;;;34.00;44.12
48624;BME280;34422;45.802;16.114;2023-07-02T08:50:57;67373.91;;;33.53;43.71
48624;BME280;34422;45.802;16.114;2023-07-02T08:53:25;67279.16;;;32.66;47.98
48624;BME280;34422;45.802;16.114;2023-07-02T08:55:56;67344.22;;;33.34;40.78
48624;BME280;34422;45.802;16.114;2023-07-02T08:58:23;67287.19;;;32.83;43.24
48624;BME280;34422;45.802;16.114;2023-07-02T09:01:09;67448.41;;;34.25;41.65
48624;BME280;34422;45.802;16.114;2023-07-02T09:03:37;67464.28;;;34.42;40.63
48624;BME280;34422;45.802;16.114;2023-07-02T09:06:08;67467.00;;;34.45;39.33
48624;BME280;34422;45.802;16.114;2023-07-02T09:08:35;67362.38;;;33.45;43.86
48624;BME280;34422;45.802;16.114;2023-07-02T09:11:12;67192.63;;;31.88;46.49
48624;BME280;34422;45.802;16.114;2023-07-02T09:13:49;67246.75;;;32.41;50.02
48624;BME280;34422;45.802;16.114;2023-07-02T09:16:28;67136.25;;;31.36;48.89
48624;BME280;34422;45.802;16.114;2023-07-02T09:18:58;67181.69;;;31.78;51.04
48624;BME280;34422;45.802;16.114;2023-07-02T09:21:38;67070.66;;;30.72;48.34
48624;BME280;34422;45.802;16.114;2023-07-02T09:24:22;67046.53;;;30.55;49.23
48624;BME280;34422;45.802;16.114;2023-07-02T09:26:51;66931.81;;;29.44;51.91
48624;BME280;34422;45.802;16.114;2023-07-02T09:29:27;66969.97;;;29.84;53.28
48624;BME280;34422;45.802;16.114;2023-07-02T09:32:00;67099.00;;;31.04;47.06
48624;BME280;34422;45.802;16.114;2023-07-02T09:34:31;67037.22;;;30.47;48.06
48624;BME280;34422;45.802;16.114;2023-07-02T09:36:59;67073.91;;;30.75;47.60
48624;BME280;34422;45.802;16.114;2023-07-02T09:39:31;67033.38;;;30.43;47.04
48624;BME280;34422;45.802;16.114;2023-07-02T09:42:00;67028.00;;;30.33;47.81
48624;BME280;34422;45.802;16.114;2023-07-02T09:44:29;67063.50;;;30.68;46.15
48624;BME280;34422;45.802;16.114;2023-07-02T09:47:10;67082.06;;;30.88;45.37
48624;BME280;34422;45.802;16.114;2023-07-02T09:49:48;67102.84;;;31.07;44.62
48624;BME280;34422;45.802;16.114;2023-07-02T09:52:16;67033.38;;;30.43;47.26
48624;BME280;34422;45.802;16.114;2023-07-02T09:54:44;67024.72;;;30.30;46.81
48624;BME280;34422;45.802;16.114;2023-07-02T09:57:11;67056.91;;;30.65;45.63
48624;BME280;34422;45.802;16.114;2023-07-02T09:59:39;67014.28;;;30.23;48.40
48624;BME280;34422;45.802;16.114;2023-07-02T10:02:09;67079.34;;;30.86;47.40
48624;BME280;34422;45.802;16.114;2023-07-02T10:04:44;67094.16;;;30.94;45.33
48624;BME280;34422;45.802;16.114;2023-07-02T10:07:12;67148.25;;;31.50;44.87
48624;BME280;34422;45.802;16.114;2023-07-02T10:09:43;66968.34;;;29.83;48.56
48624;BME280;34422;45.802;16.114;2023-07-02T10:12:18;66917.00;;;29.32;46.81
48624;BME280;34422;45.802;16.114;2023-07-02T10:14:47;67010.47;;;30.19;47.41
48624;BME280;34422;45.802;16.114;2023-07-02T10:19:59;66946.47;;;29.65;48.14
48624;BME280;34422;45.802;16.114;2023-07-02T10:22:27;66911.53;;;29.27;48.89
48624;BME280;34422;45.802;16.114;2023-07-02T10:24:55;66927.94;;;29.43;46.72
48624;BME280;34422;45.802;16.114;2023-07-02T10:27:37;66978.19;;;29.92;47.56
48624;BME280;34422;45.802;16.114;2023-07-02T10:30:05;66905.56;;;29.19;46.48
48624;BME280;34422;45.802;16.114;2023-07-02T10:32:34;66895.66;;;29.15;47.77
48624;BME280;34422;45.802;16.114;2023-07-02T10:35:12;66867.78;;;28.92;47.98
48624;BME280;34422;45.802;16.114;2023-07-02T10:37:39;66929.59;;;29.44;48.75
48624;BME280;34422;45.802;16.114;2023-07-02T10:40:07;66958.03;;;29.68;46.55
48624;BME280;34422;45.802;16.114;2023-07-02T10:42:44;67002.75;;;30.17;48.49
48624;BME280;34422;45.802;16.114;2023-07-02T10:45:11;67034.00;;;30.38;43.97
48624;BME280;34422;45.802;16.114;2023-07-02T10:47:41;66919.78;;;29.32;43.84
48624;BME280;34422;45.802;16.114;2023-07-02T10:50:21;67005.53;;;30.17;47.98
48624;BME280;34422;45.802;16.114;2023-07-02T10:52:49;67057.53;;;30.60;43.71
48624;BME280;34422;45.802;16.114;2023-07-02T10:55:20;67064.59;;;30.69;44.60
48624;BME280;34422;45.802;16.114;2023-07-02T10:57:48;67111.06;;;31.15;44.41
48624;BME280;34422;45.802;16.114;2023-07-02T11:00:18;67063.50;;;30.68;44.17
48624;BME280;34422;45.802;16.114;2023-07-02T11:02:45;67013.25;;;30.19;46.24
48624;BME280;34422;45.802;16.114;2023-07-02T11:05:11;66935.09;;;29.47;45.49
48624;BME280;34422;45.802;16.114;2023-07-02T11:07:39;67014.81;;;30.26;42.97
48624;BME280;34422;45.802;16.114;2023-07-02T11:10:08;66984.75;;;29.95;43.20
48624;BME280;34422;45.802;16.114;2023-07-02T11:12:35;67009.88;;;30.21;43.71
48624;BME280;34422;45.802;16.114;2023-07-02T11:15:14;67043.31;;;30.47;41.70
48624;BME280;34422;45.802;16.114;2023-07-02T11:17:41;66953.59;;;29.69;45.14
48624;BME280;34422;45.802;16.114;2023-07-02T11:20:09;67019.75;;;30.28;43.86
48624;BME280;34422;45.802;16.114;2023-07-02T11:22:38;66943.75;;;29.60;44.91
48624;BME280;34422;45.802;16.114;2023-07-02T11:25:15;66956.34;;;29.69;48.89
48624;BME280;34422;45.802;16.114;2023-07-02T11:27:43;66975.44;;;29.89;46.08
48624;BME280;34422;45.802;16.114;2023-07-02T11:30:11;66879.84;;;28.98;46.42
48624;BME280;34422;45.802;16.114;2023-07-02T11:32:52;66925.19;;;29.43;44.67
48624;BME280;34422;45.802;16.114;2023-07-02T11:35:19;67004.50;;;30.11;41.44
48624;BME280;34422;45.802;16.114;2023-07-02T11:37:47;66991.28;;;30.07;43.66
48624;BME280;34422;45.802;16.114;2023-07-02T11:40:17;66998.41;;;30.11;44.92
48624;BME280;34422;45.802;16.114;2023-07-02T11:42:45;67073.91;;;30.75;43.62
48624;BME280;34422;45.802;16.114;2023-07-02T11:45:11;67093.47;;;31.04;43.43
48624;BME280;34422;45.802;16.114;2023-07-02T11:47:38;67106.69;;;31.08;42.37
48624;BME280;34422;45.802;16.114;2023-07-02T11:50:06;67108.28;;;31.15;43.50
48624;BME280;34422;45.802;16.114;2023-07-02T11:52:33;67132.38;;;31.35;41.24
48624;BME280;34422;45.802;16.114;2023-07-02T11:55:03;67114.41;;;31.13;41.49
48624;BME280;34422;45.802;16.114;2023-07-02T11:57:30;67035.63;;;30.40;43.92
48624;BME280;34422;45.802;16.114;2023-07-02T11:59:57;67094.69;;;30.97;43.38
48624;BME280;34422;45.802;16.114;2023-07-02T12:02:24;67112.16;;;31.16;42.05
48624;BME280;34422;45.802;16.114;2023-07-02T12:04:51;67142.78;;;31.44;40.93
48624;BME280;34422;45.802;16.114;2023-07-02T12:07:18;67089.19;;;30.92;41.60
48624;BME280;34422;45.802;16.114;2023-07-02T12:09:45;67061.91;;;30.64;39.89
48624;BME280;34422;45.802;16.114;2023-07-02T12:12:11;67027.91;;;30.38;42.09
48624;BME280;34422;45.802;16.114;2023-07-02T12:14:38;67100.66;;;31.05;43.53
48624;BME280;34422;45.802;16.114;2023-07-02T12:17:08;67103.38;;;31.11;43.51
48624;BME280;34422;45.802;16.114;2023-07-02T12:19:35;67099.53;;;31.04;43.15
48624;BME280;34422;45.802;16.114;2023-07-02T12:22:02;67030.09;;;30.40;42.08
48624;BME280;34422;45.802;16.114;2023-07-02T12:24:29;67029.00;;;30.39;44.03
48624;BME280;34422;45.802;16.114;2023-07-02T12:26:55;67009.41;;;30.16;45.32
48624;BME280;34422;45.802;16.114;2023-07-02T12:29:22;67058.63;;;30.61;45.41
48624;BME280;34422;45.802;16.114;2023-07-02T12:31:49;66926.34;;;29.39;45.13
48624;BME280;34422;45.802;16.114;2023-07-02T12:34:16;66902.78;;;29.22;47.75
48624;BME280;34422;45.802;16.114;2023-07-02T12:36:42;66964.53;;;29.79;45.57
48624;BME280;34422;45.802;16.114;2023-07-02T12:39:09;66943.25;;;29.57;46.37
48624;BME280;34422;45.802;16.114;2023-07-02T12:41:36;66960.72;;;29.73;43.23
48624;BME280;34422;45.802;16.114;2023-07-02T12:44:03;66992.94;;;30.06;41.78
48624;BME280;34422;45.802;16.114;2023-07-02T12:46:30;66960.72;;;29.73;44.67
48624;BME280;34422;45.802;16.114;2023-07-02T12:48:57;66972.16;;;29.86;46.48
48624;BME280;34422;45.802;16.114;2023-07-02T12:51:23;67032.28;;;30.42;42.39
48624;BME280;34422;45.802;16.114;2023-07-02T12:53:50;67084.84;;;30.88;44.57
48624;BME280;34422;45.802;16.114;2023-07-02T12:56:17;67038.34;;;30.45;43.09